• Join FlightAware (Why Join?)
  • Login
  • US Flag 
05:07AM EDT


 

Airport Tracker/Info


-or-


 

Live Flight TrackerFlight Track Log ✈ USC191 ✈ 19-Jul-2013 ✈ KSUS - KADS

Flight Track Log - Related Links

Times and Time Zones

All times are in EDT time to prevent confusion due to time zone crossing. See the USC191 flight status page for this flight to view local times or setup timezone preferences in your user account.

Time Position Orientation Groundspeed Altitude Reporting Facility
EDT Latitude Longitude Course Direction KTS MPH feet Rate Location/Type
04:00AM 38.6333 -90.7000 201° Southwest 123 142 2,200  Level Gateway (St. Louis) TRACON
04:01AM 38.6000 -90.7167 201° Southwest 141 162 2,900 480 Climbing Gateway (St. Louis) TRACON
04:02AM 38.5569 -90.7686 223° Southwest 143 165 3,500 360 Climbing Kansas City Center
04:03AM 38.5261 -90.8036 222° Southwest 148 170 3,900 360 Climbing Kansas City Center
04:04AM 38.4947 -90.8425 224° Southwest 153 176 4,300 360 Climbing Kansas City Center
04:05AM 38.4642 -90.8811 225° Southwest 155 178 4,700 300 Climbing Kansas City Center
04:06AM 38.4331 -90.9208 225° Southwest 157 181 5,000 360 Climbing Kansas City Center
04:07AM 38.4025 -90.9625 227° Southwest 160 184 5,500 360 Climbing Kansas City Center
04:08AM 38.3700 -91.0028 224° Southwest 162 186 5,800 240 Climbing Kansas City Center
04:09AM 38.3361 -91.0425 223° Southwest 165 190 6,000 60 Climbing Kansas City Center
04:10AM 38.3003 -91.0839 222° Southwest 171 197 6,000  Level Kansas City Center
04:11AM 38.2628 -91.1269 222° Southwest 179 206 6,000  Level Kansas City Center
04:12AM 38.2253 -91.1703 222° Southwest 181 208 6,000  Level Kansas City Center
04:13AM 38.1878 -91.2125 222° Southwest 181 208 6,000  Level Kansas City Center
04:14AM 38.1450 -91.2625 223° Southwest 177 204 6,000  Level Kansas City Center
04:15AM 38.1092 -91.3072 224° Southwest 178 205 6,000  Level Kansas City Center
04:16AM 38.0725 -91.3486 222° Southwest 177 204 6,000  Level Kansas City Center
04:17AM 38.0353 -91.3908 222° Southwest 177 204 6,000  Level Kansas City Center
04:18AM 37.9989 -91.4342 223° Southwest 179 206 6,000  Level Kansas City Center
04:19AM 37.9622 -91.4772 223° Southwest 178 205 6,000  Level Kansas City Center
04:20AM 37.9253 -91.5214 223° Southwest 180 207 6,000  Level Kansas City Center
04:21AM 37.8881 -91.5653 223° Southwest 181 208 6,000  Level Kansas City Center
04:22AM 37.8500 -91.6089 222° Southwest 183 211 6,000  Level Kansas City Center
04:23AM 37.8128 -91.6528 223° Southwest 182 209 6,000  Level Kansas City Center
04:24AM 37.7761 -91.6972 224° Southwest 182 209 6,000  Level Kansas City Center
04:25AM 37.7369 -91.7406 221° Southwest 185 213 6,000  Level Kansas City Center
04:26AM 37.6994 -91.7839 222° Southwest 183 211 6,000  Level Kansas City Center
04:27AM 37.6611 -91.8281 222° Southwest 185 213 6,000  Level Kansas City Center
04:28AM 37.6244 -91.8722 224° Southwest 183 211 6,000  Level Kansas City Center
04:29AM 37.5867 -91.9147 222° Southwest 182 209 6,000  Level Kansas City Center
04:30AM 37.5486 -91.9597 223° Southwest 185 213 6,000  Level Kansas City Center
04:32AM 37.5111 -92.0025 222° Southwest 183 211 6,000  Level Kansas City Center
04:32AM 37.4733 -92.0458 222° Southwest 183 211 6,000  Level Kansas City Center
04:34AM 37.4356 -92.0892 222° Southwest 183 211 6,000  Level Kansas City Center
04:35AM 37.3981 -92.1319 222° Southwest 182 209 6,000  Level Kansas City Center
04:36AM 37.3611 -92.1747 223° Southwest 181 208 6,000  Level Kansas City Center
04:37AM 37.3219 -92.2178 221° Southwest 183 211 6,000  Level Kansas City Center
04:38AM 37.2850 -92.2617 223° Southwest 183 211 6,000  Level Kansas City Center
04:39AM 37.2475 -92.3047 222° Southwest 182 209 6,000  Level Kansas City Center
04:40AM 37.2100 -92.3472 222° Southwest 182 209 6,000  Level Kansas City Center
04:41AM 37.1717 -92.3908 222° Southwest 183 211 6,000  Level Kansas City Center
04:42AM 37.1339 -92.4342 222° Southwest 184 212 6,000  Level Kansas City Center
04:43AM 37.0967 -92.4764 222° Southwest 182 209 6,000  Level Kansas City Center
04:44AM 37.0592 -92.5186 222° Southwest 181 208 6,000  Level Kansas City Center
04:45AM 37.0197 -92.5617 221° Southwest 184 212 6,000  Level Kansas City Center
04:46AM 36.9839 -92.6047 224° Southwest 182 209 6,000  Level Kansas City Center
04:47AM 36.9453 -92.6469 221° Southwest 182 209 6,000  Level Kansas City Center
04:48AM 36.9000 -92.6975 222° Southwest 182 209 6,000  Level Kansas City Center
04:49AM 36.8619 -92.7394 221° Southwest 182 209 6,000  Level Kansas City Center
04:50AM 36.8247 -92.7836 224° Southwest 182 209 6,000  Level Kansas City Center
04:51AM 36.7869 -92.8244 221° Southwest 182 209 6,000  Level Kansas City Center
04:52AM 36.7497 -92.8669 222° Southwest 181 208 6,000  Level Kansas City Center
04:53AM 36.7111 -92.9081 220° Southwest 182 209 6,000  Level Kansas City Center
04:54AM 36.6736 -92.9483 221° Southwest 179 206 6,000  Level Kansas City Center
04:55AM 36.6364 -92.9908 223° Southwest 180 207 6,000  Level Kansas City Center
04:56AM 36.5989 -93.0322 222° Southwest 180 207 6,000  Level Kansas City Center
04:57AM 36.5658 -93.0678 221° Southwest 179 206 6,000  Level Kansas City Center
04:58AM 36.5283 -93.1100 222° Southwest 181 208 6,000  Level Kansas City Center
04:59AM 36.4911 -93.1514 222° Southwest 180 207 6,000  Level Kansas City Center
05:00AM 36.4456 -93.2014 221° Southwest 182 209 6,000  Level Kansas City Center
05:01AM 36.4083 -93.2442 223° Southwest 182 209 6,000  Level Kansas City Center
05:02AM 36.3703 -93.2850 221° Southwest 182 209 6,000  Level Kansas City Center
05:02AM 36.3511 -93.3072 223° Southwest 187 215 6,000  Level Memphis Center
05:03AM 36.3125 -93.3472 220° Southwest 187 215 6,000  Level Memphis Center
05:04AM 36.2739 -93.3919 223° Southwest 187 215 6,000  Level Memphis Center
05:05AM 36.2353 -93.4344 222° Southwest 187 215 6,000  Level Memphis Center
05:06AM 36.1969 -93.4767 222° Southwest 187 215 6,000  Level Memphis Center
05:07AM 36.1583 -93.5164 220° Southwest 187 215 6,000  Level Memphis Center
05:08AM 36.1217 -93.5586 223° Southwest 187 215 6,000  Level Memphis Center
05:09AM 36.0808 -93.6058 223° Southwest 194 223 6,000  Level Memphis Center
05:10AM 36.0425 -93.6428 218° Southwest 194 223 6,000  Level Memphis Center
05:11AM 36.0039 -93.6847 221° Southwest 194 223 6,000  Level Memphis Center
05:12AM 35.9628 -93.7319 223° Southwest 194 223 6,000  Level Memphis Center
05:13AM 35.9286 -93.7689 221° Southwest 194 223 6,000  Level Memphis Center
05:14AM 35.8833 -93.8183 222° Southwest 194 223 6,000  Level Memphis Center
05:15AM 35.8425 -93.8600 220° Southwest 199 229 6,000  Level Memphis Center
05:16AM 35.8039 -93.9019 221° Southwest 199 229 6,000  Level Memphis Center
05:17AM 35.7631 -93.9464 221° Southwest 199 229 6,000  Level Memphis Center
05:18AM 35.7264 -93.9856 221° Southwest 194 223 6,000  Level Memphis Center
05:19AM 35.6875 -94.0275 221° Southwest 194 223 6,000  Level Memphis Center
05:20AM 35.6508 -94.0769 228° Southwest 207 238 6,000  Level Memphis Center
05:21AM 35.6100 -94.1108 214° Southwest 188 216 6,000  Level Memphis Center
05:22AM 35.5714 -94.1525 221° Southwest 188 216 6,000  Level Memphis Center
05:23AM 35.5325 -94.1967 223° Southwest 188 216 6,000  Level Memphis Center
05:24AM 35.4958 -94.2356 221° Southwest 188 216 6,000  Level Memphis Center
05:25AM 35.4547 -94.2772 220° Southwest 188 216 6,000  Level Memphis Center
05:26AM 35.4139 -94.3211 221° Southwest 188 216 6,000  Level Memphis Center
05:27AM 35.3769 -94.3678 226° Southwest 188 216 6,000  Level Memphis Center
05:28AM 35.3361 -94.4014 214° Southwest 188 216 6,000  Level Memphis Center
05:29AM 35.2992 -94.4428 222° Southwest 188 216 6,000  Level Memphis Center
05:30AM 35.2583 -94.4842 220° Southwest 188 216 6,000  Level Memphis Center
05:31AM 35.2236 -94.5231 222° Southwest 188 216 6,000  Level Memphis Center
05:32AM 35.1847 -94.5642 221° Southwest 188 216 6,000  Level Memphis Center
05:33AM 35.1458 -94.6056 221° Southwest 188 216 6,000  Level Memphis Center
05:34AM 35.1089 -94.6442 221° Southwest 188 216 6,000  Level Memphis Center
05:35AM 35.0717 -94.6981 230° Southwest 193 222 6,000  Level Memphis Center
05:36AM 35.0328 -94.7367 219° Southwest 201 231 6,000  Level Memphis Center
05:37AM 35.0050 -94.7622 217° Southwest 182 209 6,000  Level Fort Worth Center
05:38AM 34.9683 -94.8039 223° Southwest 172 198 6,000  Level Fort Worth Center
05:39AM 34.9272 -94.8431 218° Southwest 182 209 6,000  Level Fort Worth Center
05:40AM 34.8947 -94.8794 223° Southwest 182 209 6,000  Level Fort Worth Center
05:41AM 34.8558 -94.9186 220° Southwest 189 217 6,000  Level Fort Worth Center
05:42AM 34.8172 -94.9678 226° Southwest 184 212 6,000  Level Fort Worth Center
05:43AM 34.7806 -95.0092 223° Southwest 189 217 6,000  Level Fort Worth Center
05:44AM 34.7436 -95.0508 223° Southwest 184 212 6,000  Level Fort Worth Center
05:45AM 34.7089 -95.0847 219° Southwest 184 212 6,000  Level Fort Worth Center
05:46AM 34.6700 -95.1211 218° Southwest 184 212 6,000  Level Fort Worth Center
05:47AM 34.6247 -95.1675 220° Southwest 184 212 6,000  Level Fort Worth Center
05:48AM 34.5839 -95.2039 216° Southwest 184 212 6,000  Level Fort Worth Center
05:49AM 34.5469 -95.2428 221° Southwest 190 219 6,100  Climbing Fort Worth Center
05:50AM 34.5081 -95.2842 221° Southwest 185 213 6,000 -120 Descending Fort Worth Center
05:51AM 34.4669 -95.3228 218° Southwest 185 213 5,900  Descending Fort Worth Center
05:52AM 34.4278 -95.3592 217° Southwest 185 213 6,100 60 Climbing Fort Worth Center
05:53AM 34.3908 -95.3978 221° Southwest 185 213 6,100 -60 Level Fort Worth Center
05:54AM 34.3519 -95.4389 221° Southwest 185 213 6,000 -60 Descending Fort Worth Center
05:55AM 34.3128 -95.4775 219° Southwest 185 213 6,000  Level Fort Worth Center
05:56AM 34.2717 -95.5161 218° Southwest 191 220 6,000  Level Fort Worth Center
05:57AM 34.2325 -95.5522 217° Southwest 186 214 6,000  Level Fort Worth Center
05:58AM 34.1936 -95.5906 219° Southwest 186 214 6,000  Level Fort Worth Center
05:59AM 34.1522 -95.6292 218° Southwest 186 214 6,000  Level Fort Worth Center
06:00AM 34.1153 -95.6675 221° Southwest 186 214 6,000  Level Fort Worth Center
06:01AM 34.0803 -95.7008 218° Southwest 186 214 6,000  Level Fort Worth Center
06:02AM 34.0411 -95.7392 219° Southwest 186 214 6,000  Level Fort Worth Center
06:03AM 34.0083 -95.7850 229° Southwest 186 214 6,000  Level Fort Worth Center
06:04AM 33.9608 -95.8233 214° Southwest 186 214 6,000  Level Fort Worth Center
06:05AM 33.9217 -95.8617 219° Southwest 192 221 6,000  Level Fort Worth Center
06:06AM 33.8931 -95.8997 228° Southwest 185 213 6,000  Level Fort Worth Center
06:07AM 33.8539 -95.9378 219° Southwest 180 207 6,000  Level Fort Worth Center
06:08AM 33.8144 -95.9786 221° Southwest 186 214 6,100  Climbing Fort Worth Center
06:09AM 33.7733 -96.0217 221° Southwest 186 214 6,000 -60 Descending Fort Worth Center
06:10AM 33.7425 -96.0619 227° Southwest 186 214 6,000  Level Fort Worth Center
06:11AM 33.6992 -96.1053 220° Southwest 186 214 6,000  Level Fort Worth Center
06:12AM 33.6661 -96.1406 222° Southwest 186 214 6,000  Level Fort Worth Center
06:13AM 33.6269 -96.1861 224° Southwest 186 214 6,000  Level Fort Worth Center
06:14AM 33.5917 -96.2239 222° Southwest 186 214 6,000  Level Fort Worth Center
06:15AM 33.5525 -96.2669 222° Southwest 186 214 6,000  Level Fort Worth Center
06:16AM 33.5172 -96.3047 222° Southwest 186 214 6,000  Level Fort Worth Center
06:17AM 33.4781 -96.3475 222° Southwest 186 214 6,000  Level Fort Worth Center
06:18AM 33.4428 -96.3828 220° Southwest 186 214 6,000  Level Fort Worth Center
06:19AM 33.4036 -96.4281 224° Southwest 186 214 6,000  Level Fort Worth Center
06:20AM 33.3706 -96.4633 222° Southwest 186 214 6,000  Level Fort Worth Center
06:21AM 33.3500 -96.4833 219° Southwest 179 206 6,000  Level Dallas / Fort Worth TRACON
06:22AM 33.3000 -96.5333 220° Southwest 179 206 6,000 -300 Level Dallas / Fort Worth TRACON
06:23AM 33.2667 -96.5667 220° Southwest 185 213 5,400 -720 Descending Dallas / Fort Worth TRACON
06:24AM 33.2333 -96.6000 220° Southwest 192 221 4,700 -780 Descending Dallas / Fort Worth TRACON
06:25AM 33.1833 -96.6333 209° Southwest 190 219 4,000 -840 Descending Dallas / Fort Worth TRACON
06:26AM 33.1500 -96.6833 231° Southwest 189 217 3,100 -540 Descending Dallas / Fort Worth TRACON
06:27AM 33.1000 -96.7167 209° Southwest 164 189 2,900 -420 Descending Dallas / Fort Worth TRACON
06:28AM 33.0667 -96.7500 220° Southwest 168 193 2,200 -660 Descending Dallas / Fort Worth TRACON
06:32AM 33.0008 -96.7763 199° South  Level FlightAware Approximate
06:39AM 32.9667 -96.8333 248° West  Level FlightAware Approximate
06:40AM 32.9686 -96.8364 248° West  Level Estimated
06:41AM 32.9667 -96.8333 248° West  Level FlightAware Approximate
06:42AM 32.9686 -96.8364 248° West  Level Estimated
06:43AM 32.9667 -96.8333 248° West  Level FlightAware Approximate
06:44AM 32.9686 -96.8364 248° West  Level Estimated
06:45AM 32.9667 -96.8333 248° West  Level FlightAware Approximate
06:46AM 32.9686 -96.8364 248° West  Level Estimated
06:47AM 32.9667 -96.8333 248° West  Level FlightAware Approximate